Main page
METAR-TAF:

METAR-TAF

Airports :

Tivat Airport

Tivat, Montenegro

latitude: 42-24N, longitude: 018-44E, elevation: 5 m

Current weather observation

The report was made 37 minutes ago, at 21:30 UTC
Wind 1 kt from variable directions
Temperature 23°C
Humidity 78%
Pressure 1008 hPa
Visibility 10 km or more
no clouds below 1500 m and no cumulonimbus

METAR: LYTV 202130Z AUTO VRB01KT CAVOK 23/19 Q1008

Time: 00:07 (22:07 UTC)

Forecast

The report was made 5 hours and 7 minutes ago, at 17:00 UTC
Forecast valid from 20 at 18 UTC to 21 at 18 UTC
Wind 2 kt from variable directions
Visibility 10 km or more
no clouds below 1500 m and no cumulonimbus

TAF: LYTV 201700Z 2018/2118 VRB02KT CAVOK TX32/2114Z TN21/2103Z

Weather observations and forecasts of more than 4000 airports (METAR and TAF reports).

The available stations are represented by yellow and red dots on the map.

Hover mouse over dot to see the name of the station.

Then click to see weather observations and forecasts.

To change the map : click on the green buttons with a black cross to zoom in, on the green button with a dash to zoom out, or on the green arrows for adjacent maps.


METAR-TAF: